Big Bend National Park, TX

4:09 AM CDT on October 25, 2014 (GMT -0500)
Terlingua/Study Butte | Change Station
CLOSE
Current Station
Personal Weather Station
Location: Terlingua, TX
Elevation: 2552 ft
Nearby Weather Stations

Elev 2552 ft 29.33 °N, 103.54 °W | Updated 15 seconds ago

Clear
Clear
64.0 °F
Feels Like 64.0 °F
N
1.1
Wind Variable Wind from NNE
Gusts 2.0 mph

Today
High -- | Low -- °F
--% Chance of Precip.
Yesterday
High -- | Low -- °F
Precip. -- in
8:00 AM 7:12 PM
New Moon, 2% visible
Pressure 30.16 in
Visibility 10.0 miles
Clouds Clear
Dew Point 54 °F
Humidity 70%
Rainfall 0.00 in
Snow Depth Not available.
UV 0.0 out of 12
Pollen 5.70 out of 12
Air Quality Not available.
Flu Activity Local Activity
METAR KPRS 250855Z AUTO 01006KT 10SM CLR 20/12 A3016 RMK AO2 T01950118

More Conditions Fewer Conditions

Pressure 30.16 in
Visibility 10.0 miles
Clouds Clear
Dew Point 54 °F
Humidity 70%
Rainfall 0.00 in
Snow Depth Not available.
UV 0.0 out of 12
Pollen 5.70 out of 12
Air Quality Not available.
Flu Activity Local Activity
METAR KPRS 250855Z AUTO 01006KT 10SM CLR 20/12 A3016 RMK AO2 T01950118

More Conditions Fewer Conditions

10-Day Weather Forecast

Almanac

Astronomy

Oct. 25, 2014 Rise Set
Actual Time 8:00 AM CDT 7:12 PM CDT
Civil Twilight 7:36 AM CDT 7:36 PM CDT
Nautical Twilight 7:08 AM CDT 8:04 PM CDT
Astronomical Twilight 6:40 AM CDT 8:32 PM CDT
Moon 9:36 AM CDT 8:43 PM CDT
Length of Visible Light 12h 00m
Length of Day
11h 11m
Tomorrow will be 1m 36s shorter.
New Moon, 2% of the Moon is Illuminated
Today
New Moon
Oct 30
First Quarter
Nov 6
Full
Nov 14
Last Quarter
Nov 22
New

Today's Extremes

State Highs State Lows

Community

WunderPhotos

Upload Photos

1,764,796 photos uploaded!

Nearby

Snow Depth

Station Depth Elevation
No new snow has been reported.

Earthquake Activity

City Distance Mag. Time & Date
No recent earthquake activity has been reported nearby.
Minimum magnitude displayed is 2.5.

Coastal Water Temperatures

Place Temperature
No Stations Reporting

Nearby Weather Stations